createdAt,value
2023-03-17T00:01:54.489Z,2.90
2023-03-17T00:04:24.225Z,2.80
2023-03-17T00:06:51.835Z,2.80
2023-03-17T00:09:19.917Z,2.80
2023-03-17T00:11:47.892Z,2.80
2023-03-17T00:14:15.181Z,2.80
2023-03-17T00:16:44.175Z,2.80
2023-03-17T00:19:17.238Z,2.80
2023-03-17T00:21:46.062Z,2.80
2023-03-17T00:24:15.069Z,2.90
2023-03-17T00:26:42.534Z,2.90
2023-03-17T00:29:09.899Z,2.80
2023-03-17T00:31:38.070Z,2.90
2023-03-17T00:34:05.715Z,2.90
2023-03-17T00:36:34.352Z,2.80
2023-03-17T00:39:01.511Z,2.80
2023-03-17T00:41:32.368Z,2.90
2023-03-17T00:43:59.645Z,2.90
2023-03-17T00:46:30.084Z,3.00
2023-03-17T00:48:57.072Z,2.90
2023-03-17T00:51:27.090Z,2.90
2023-03-17T00:53:54.024Z,2.90
2023-03-17T00:56:21.883Z,2.90
2023-03-17T00:58:49.381Z,2.80
2023-03-17T01:01:16.557Z,2.80
2023-03-17T01:03:43.357Z,2.80
2023-03-17T01:06:12.845Z,2.70
2023-03-17T01:08:41.606Z,2.70
2023-03-17T01:11:20.263Z,2.70
2023-03-17T01:13:47.034Z,2.70
2023-03-17T01:16:15.457Z,2.80
2023-03-17T01:18:42.356Z,3.00
2023-03-17T01:21:09.451Z,2.80
2023-03-17T01:23:37.401Z,2.90
2023-03-17T01:26:04.477Z,2.80
2023-03-17T01:28:31.356Z,2.80
2023-03-17T01:30:58.050Z,2.80
2023-03-17T01:33:25.612Z,2.70
2023-03-17T01:35:52.763Z,2.70
2023-03-17T01:38:19.533Z,2.70
2023-03-17T01:40:49.672Z,2.70
2023-03-17T01:43:29.361Z,2.70
2023-03-17T01:46:22.512Z,2.70
2023-03-17T01:49:04.433Z,2.80
2023-03-17T01:51:47.807Z,2.80
2023-03-17T01:54:21.917Z,2.80
2023-03-17T01:56:52.330Z,2.80
2023-03-17T01:59:24.999Z,2.80
2023-03-17T02:01:56.635Z,2.70
2023-03-17T02:04:25.878Z,2.60
2023-03-17T02:06:58.286Z,2.70
2023-03-17T02:09:27.624Z,2.70
2023-03-17T02:11:55.669Z,2.70
2023-03-17T02:14:23.732Z,2.70
2023-03-17T02:16:50.499Z,2.70
2023-03-17T02:19:17.297Z,2.70
2023-03-17T02:21:53.416Z,2.70
2023-03-17T02:24:37.643Z,2.60
2023-03-17T02:27:13.553Z,2.60
2023-03-17T02:29:41.485Z,2.50
2023-03-17T02:32:10.041Z,2.40
2023-03-17T02:34:37.391Z,2.50
2023-03-17T02:37:04.646Z,2.40
2023-03-17T02:39:32.115Z,2.50
2023-03-17T02:41:58.918Z,2.50
2023-03-17T02:44:25.971Z,2.40
2023-03-17T02:46:52.979Z,2.40
2023-03-17T02:49:20.786Z,2.40
2023-03-17T02:51:48.119Z,2.40
2023-03-17T02:54:15.067Z,2.40
2023-03-17T02:56:42.081Z,2.30
2023-03-17T02:59:09.333Z,2.30
2023-03-17T03:01:36.347Z,2.30
2023-03-17T03:04:04.109Z,2.30
2023-03-17T03:06:31.750Z,2.30
2023-03-17T03:08:58.621Z,2.30
2023-03-17T03:11:26.543Z,2.40
2023-03-17T03:13:53.303Z,2.40
2023-03-17T03:16:20.081Z,2.30
2023-03-17T03:18:47.231Z,2.30
2023-03-17T03:21:14.339Z,2.30
2023-03-17T03:23:41.251Z,2.30
2023-03-17T03:26:07.898Z,2.40
2023-03-17T03:28:34.909Z,2.30
2023-03-17T03:31:02.024Z,2.30
2023-03-17T03:33:28.756Z,2.20
2023-03-17T03:35:55.501Z,2.10
2023-03-17T03:38:22.252Z,2.00
2023-03-17T03:40:48.941Z,2.10
2023-03-17T03:43:23.091Z,2.10
2023-03-17T03:45:51.417Z,2.10
2023-03-17T03:48:18.711Z,2.10
2023-03-17T03:50:45.707Z,2.00
2023-03-17T03:53:12.997Z,2.00
2023-03-17T03:55:39.923Z,2.00
2023-03-17T03:58:06.847Z,2.00
2023-03-17T04:00:33.824Z,1.90
2023-03-17T04:03:01.332Z,1.90
2023-03-17T04:05:31.279Z,1.90
2023-03-17T04:07:57.944Z,1.80
2023-03-17T04:10:24.662Z,1.80
2023-03-17T04:12:51.376Z,1.80
2023-03-17T04:15:19.769Z,1.70
2023-03-17T04:17:47.054Z,1.70
2023-03-17T04:20:15.309Z,1.70
2023-03-17T04:22:42.894Z,1.70
2023-03-17T04:25:11.760Z,1.70
2023-03-17T04:27:38.519Z,1.70
2023-03-17T04:30:06.140Z,1.60
2023-03-17T04:32:32.903Z,1.60
2023-03-17T04:34:59.643Z,1.60
2023-03-17T04:37:26.498Z,1.50
2023-03-17T04:39:53.488Z,1.50
2023-03-17T04:42:20.156Z,1.50
2023-03-17T04:44:47.092Z,1.40
2023-03-17T04:47:13.773Z,1.50
2023-03-17T04:49:40.542Z,1.40
2023-03-17T04:52:07.317Z,1.40
2023-03-17T04:54:34.094Z,1.50
2023-03-17T04:57:00.994Z,1.50
2023-03-17T04:59:27.738Z,1.40
2023-03-17T05:01:54.544Z,1.40
2023-03-17T05:04:31.127Z,1.30
2023-03-17T05:06:58.919Z,1.30
2023-03-17T05:09:27.099Z,1.30
2023-03-17T05:11:54.113Z,1.30
2023-03-17T05:14:21.339Z,1.20
2023-03-17T05:16:49.027Z,1.20
2023-03-17T05:19:16.689Z,1.20
2023-03-17T05:21:43.810Z,1.10
2023-03-17T05:24:10.763Z,1.10
2023-03-17T05:26:37.635Z,1.00
2023-03-17T05:29:04.696Z,1.00
2023-03-17T05:31:32.042Z,1.00
2023-03-17T05:33:59.058Z,1.00
2023-03-17T05:36:25.817Z,0.90
2023-03-17T05:38:52.704Z,1.00
2023-03-17T05:41:19.762Z,1.00
2023-03-17T05:43:46.930Z,1.00
2023-03-17T05:46:13.894Z,1.00
2023-03-17T05:48:41.047Z,0.90
2023-03-17T05:51:08.338Z,0.90
2023-03-17T05:53:36.281Z,0.90
2023-03-17T05:56:03.804Z,0.90
2023-03-17T05:58:30.743Z,0.90
2023-03-17T06:00:57.572Z,0.90
2023-03-17T06:03:24.347Z,0.90
2023-03-17T06:05:51.738Z,0.90
2023-03-17T06:08:19.180Z,0.90
2023-03-17T06:10:47.346Z,0.90
2023-03-17T06:13:14.269Z,0.90
2023-03-17T06:15:43.045Z,0.90
2023-03-17T06:18:09.862Z,1.00
2023-03-17T06:20:36.745Z,1.00
2023-03-17T06:23:05.625Z,1.00
2023-03-17T06:25:34.618Z,1.00
2023-03-17T06:28:03.893Z,1.00
2023-03-17T06:30:37.564Z,1.10
2023-03-17T06:33:06.825Z,1.10
2023-03-17T06:35:34.342Z,1.00
2023-03-17T06:38:02.343Z,1.00
2023-03-17T06:40:29.521Z,1.10
2023-03-17T06:42:56.605Z,1.00
2023-03-17T06:45:23.397Z,1.10
2023-03-17T06:47:53.327Z,1.10
2023-03-17T06:50:20.246Z,1.10
2023-03-17T06:52:47.114Z,1.20
2023-03-17T06:55:13.913Z,1.30
2023-03-17T06:57:41.049Z,1.30
2023-03-17T07:00:08.703Z,1.40
2023-03-17T07:02:35.597Z,1.50
2023-03-17T07:05:03.744Z,1.60
2023-03-17T07:07:30.680Z,1.70
2023-03-17T07:09:58.316Z,1.90
2023-03-17T07:12:25.042Z,2.00
2023-03-17T07:14:52.138Z,2.10
2023-03-17T07:17:19.676Z,2.20
2023-03-17T07:19:47.031Z,2.20
2023-03-17T07:22:13.881Z,2.30
2023-03-17T07:24:43.121Z,2.40
2023-03-17T07:27:10.002Z,2.50
2023-03-17T07:29:37.003Z,2.50
2023-03-17T07:32:06.579Z,2.60
2023-03-17T07:34:33.908Z,2.70
2023-03-17T07:37:01.074Z,2.80
2023-03-17T07:39:27.959Z,2.90
2023-03-17T07:41:57.867Z,2.90
2023-03-17T07:44:25.193Z,3.00
2023-03-17T07:46:52.374Z,3.10
2023-03-17T07:49:34.059Z,3.20
2023-03-17T07:52:08.624Z,3.20
2023-03-17T07:54:36.624Z,3.30
2023-03-17T07:57:04.349Z,3.30
2023-03-17T07:59:31.605Z,3.40
2023-03-17T08:02:00.211Z,3.60
2023-03-17T08:04:27.692Z,3.70
2023-03-17T08:06:54.587Z,3.80
2023-03-17T08:09:22.330Z,3.80
2023-03-17T08:11:49.451Z,3.80
2023-03-17T08:14:16.686Z,4.00
2023-03-17T08:16:43.505Z,4.20
2023-03-17T08:19:11.228Z,4.30
2023-03-17T08:21:37.994Z,4.30
2023-03-17T08:24:05.309Z,4.30
2023-03-17T08:26:32.547Z,4.50
2023-03-17T08:28:59.456Z,4.60
2023-03-17T08:31:26.323Z,4.70
2023-03-17T08:33:54.581Z,4.70
2023-03-17T08:36:21.746Z,4.80
2023-03-17T08:38:48.549Z,5.00
2023-03-17T08:41:18.334Z,5.20
2023-03-17T08:43:46.324Z,5.30
2023-03-17T08:46:28.038Z,5.30
2023-03-17T08:48:56.718Z,5.40
2023-03-17T08:51:26.586Z,5.50
2023-03-17T08:53:54.941Z,5.70
2023-03-17T08:56:22.510Z,5.90
2023-03-17T08:58:50.805Z,6.10
2023-03-17T09:01:18.639Z,6.20
2023-03-17T09:03:45.621Z,6.30
2023-03-17T09:06:13.616Z,6.40
2023-03-17T09:08:44.947Z,6.50
2023-03-17T09:11:14.911Z,6.70
2023-03-17T09:13:42.097Z,7.00
2023-03-17T09:16:10.008Z,7.40
2023-03-17T09:18:37.701Z,7.60
2023-03-17T09:21:05.400Z,7.80
2023-03-17T09:23:32.927Z,8.00
2023-03-17T09:26:00.818Z,8.10
2023-03-17T09:28:29.047Z,8.10
2023-03-17T09:31:05.253Z,8.20
2023-03-17T09:33:32.056Z,8.20
2023-03-17T09:35:58.843Z,8.20
2023-03-17T09:38:27.755Z,8.00
2023-03-17T09:41:00.341Z,8.00
2023-03-17T09:43:52.342Z,8.10
2023-03-17T09:47:00.882Z,8.30
2023-03-17T09:50:01.205Z,8.20
2023-03-17T09:52:34.363Z,8.20
2023-03-17T09:55:04.152Z,8.30
2023-03-17T09:57:35.748Z,8.50
2023-03-17T10:00:14.693Z,8.60
2023-03-17T10:02:43.197Z,8.90
2023-03-17T10:05:13.060Z,9.30
2023-03-17T10:07:49.543Z,9.80
2023-03-17T10:10:39.264Z,10.10
2023-03-17T10:13:14.047Z,10.50
2023-03-17T10:15:57.785Z,10.70
2023-03-17T10:18:33.256Z,10.90
2023-03-17T10:21:06.001Z,11.00
2023-03-17T10:23:35.014Z,11.10
2023-03-17T10:26:26.308Z,11.40
2023-03-17T10:28:55.890Z,11.70
2023-03-17T10:31:33.240Z,11.90
2023-03-17T10:34:20.133Z,12.00
2023-03-17T10:36:49.425Z,12.10
2023-03-17T10:39:22.094Z,12.30
2023-03-17T10:41:57.050Z,12.40
2023-03-17T10:44:58.419Z,12.50
2023-03-17T10:47:31.713Z,12.60
2023-03-17T10:50:15.437Z,12.70
2023-03-17T10:52:42.840Z,12.80
2023-03-17T10:55:15.436Z,12.80
2023-03-17T10:58:02.125Z,12.80
2023-03-17T11:00:35.224Z,12.80
2023-03-17T11:03:24.622Z,13.00
2023-03-17T11:06:14.670Z,13.10
2023-03-17T11:08:45.702Z,13.30
2023-03-17T11:11:34.751Z,13.30
2023-03-17T11:14:04.061Z,13.60
2023-03-17T11:16:34.970Z,13.80
2023-03-17T11:19:02.467Z,14.00
2023-03-17T11:21:46.759Z,14.10
2023-03-17T11:24:32.122Z,14.20
2023-03-17T11:27:17.937Z,14.20
2023-03-17T11:30:30.451Z,14.30
2023-03-17T11:33:03.207Z,14.40
2023-03-17T11:36:04.027Z,14.60
2023-03-17T11:38:36.249Z,14.80
2023-03-17T11:41:25.506Z,15.00
2023-03-17T11:44:05.682Z,15.30
2023-03-17T11:47:07.387Z,15.60
2023-03-17T11:49:38.985Z,15.90
2023-03-17T11:52:38.746Z,16.10
2023-03-17T11:55:19.188Z,16.30
2023-03-17T11:57:56.701Z,16.30
2023-03-17T12:01:00.869Z,16.30
2023-03-17T12:03:50.609Z,16.40
2023-03-17T12:06:33.591Z,16.30
2023-03-17T12:09:13.203Z,16.20
2023-03-17T12:11:41.644Z,16.10
2023-03-17T12:14:30.061Z,16.10
2023-03-17T12:17:18.605Z,16.10
2023-03-17T12:20:18.354Z,16.20
2023-03-17T12:23:16.946Z,16.30
2023-03-17T12:26:05.090Z,16.30
2023-03-17T12:28:42.546Z,16.40
2023-03-17T12:31:24.106Z,16.30
2023-03-17T12:34:15.490Z,16.40
2023-03-17T12:36:42.654Z,16.40
2023-03-17T12:39:16.360Z,16.30
2023-03-17T12:42:11.000Z,16.30
2023-03-17T12:45:11.963Z,16.40
2023-03-17T12:48:03.014Z,16.50
2023-03-17T12:50:53.771Z,16.40
2023-03-17T12:53:28.463Z,16.50
2023-03-17T12:56:00.171Z,16.50
2023-03-17T12:58:46.486Z,16.50
2023-03-17T13:01:33.218Z,16.50
2023-03-17T13:04:08.644Z,16.50
2023-03-17T13:06:42.515Z,16.50
2023-03-17T13:09:31.818Z,16.50
2023-03-17T13:12:01.194Z,16.50
2023-03-17T13:14:41.969Z,16.50
2023-03-17T13:17:17.860Z,16.60
2023-03-17T13:20:11.606Z,16.60
2023-03-17T13:22:58.933Z,16.70
2023-03-17T13:25:34.912Z,16.70
2023-03-17T13:28:13.690Z,16.70
2023-03-17T13:30:40.607Z,16.70
2023-03-17T13:33:10.298Z,16.80
2023-03-17T13:35:46.124Z,16.80
2023-03-17T13:39:17.665Z,16.80
2023-03-17T13:42:15.800Z,16.80
2023-03-17T13:45:18.734Z,16.90
2023-03-17T13:47:47.178Z,17.00
2023-03-17T13:50:31.494Z,16.90
2023-03-17T13:53:03.615Z,16.90
2023-03-17T13:55:42.086Z,16.90
2023-03-17T13:58:11.385Z,17.00
2023-03-17T14:00:47.557Z,16.90
2023-03-17T14:03:29.153Z,17.00
2023-03-17T14:05:57.451Z,17.00
2023-03-17T14:08:27.080Z,17.00
2023-03-17T14:10:56.581Z,17.00
2023-03-17T14:13:27.923Z,17.00
2023-03-17T14:16:03.934Z,17.00
2023-03-17T14:18:35.236Z,17.00
2023-03-17T14:21:09.960Z,17.10
2023-03-17T14:23:38.414Z,17.10
2023-03-17T14:26:07.168Z,17.10
2023-03-17T14:28:35.571Z,17.10
2023-03-17T14:31:05.515Z,17.10
2023-03-17T14:33:38.171Z,17.10
2023-03-17T14:36:09.442Z,17.20
2023-03-17T14:38:38.529Z,17.20
2023-03-17T14:41:19.500Z,17.20
2023-03-17T14:43:46.343Z,17.20
2023-03-17T14:46:22.214Z,17.10
2023-03-17T14:48:52.452Z,17.10
2023-03-17T14:51:39.050Z,17.10
2023-03-17T14:54:16.809Z,17.10
2023-03-17T14:56:51.948Z,17.10
2023-03-17T14:59:25.294Z,17.20
2023-03-17T15:01:57.732Z,17.10
2023-03-17T15:04:32.978Z,17.10
2023-03-17T15:07:06.618Z,17.20
2023-03-17T15:09:38.460Z,17.20
2023-03-17T15:12:17.885Z,17.20
2023-03-17T15:14:51.516Z,17.20
2023-03-17T15:17:27.066Z,17.20
2023-03-17T15:19:58.057Z,17.20
2023-03-17T15:22:29.512Z,17.20
2023-03-17T15:25:02.904Z,17.20
2023-03-17T15:27:31.475Z,17.10
2023-03-17T15:29:58.445Z,17.10
2023-03-17T15:32:26.881Z,17.00
2023-03-17T15:34:57.063Z,17.00
2023-03-17T15:37:25.447Z,17.00
2023-03-17T15:39:53.756Z,17.00
2023-03-17T15:42:23.518Z,16.90
2023-03-17T15:44:51.602Z,16.90
2023-03-17T15:47:21.142Z,16.90
2023-03-17T15:49:49.759Z,16.90
2023-03-17T15:52:21.729Z,16.80
2023-03-17T15:54:49.362Z,16.80
2023-03-17T15:57:16.567Z,16.80
2023-03-17T15:59:44.096Z,16.80
2023-03-17T16:02:22.808Z,16.80
2023-03-17T16:04:49.736Z,16.80
2023-03-17T16:07:17.285Z,16.80
2023-03-17T16:09:45.476Z,16.70
2023-03-17T16:12:12.807Z,16.70
2023-03-17T16:14:39.802Z,16.60
2023-03-17T16:17:13.710Z,16.60
2023-03-17T16:19:40.358Z,16.50
2023-03-17T16:22:34.809Z,16.50
2023-03-17T16:25:01.677Z,16.40
2023-03-17T16:27:28.516Z,16.40
2023-03-17T16:29:55.383Z,16.30
2023-03-17T16:32:22.105Z,16.30
2023-03-17T16:34:48.819Z,16.30
2023-03-17T16:37:16.221Z,16.20
2023-03-17T16:39:43.224Z,16.10
2023-03-17T16:42:22.312Z,16.10
2023-03-17T16:44:49.758Z,16.00
2023-03-17T16:47:16.728Z,15.90
2023-03-17T16:49:43.506Z,15.80
2023-03-17T16:52:12.071Z,15.70
2023-03-17T16:54:38.950Z,15.60
2023-03-17T16:57:07.783Z,15.60
2023-03-17T16:59:34.836Z,15.50
2023-03-17T17:02:02.113Z,15.30
2023-03-17T17:04:28.967Z,15.20
2023-03-17T17:06:56.698Z,15.10
2023-03-17T17:09:23.466Z,15.10
2023-03-17T17:11:50.220Z,15.00
2023-03-17T17:14:17.072Z,14.80
2023-03-17T17:16:44.045Z,14.80
2023-03-17T17:19:16.037Z,14.70
2023-03-17T17:21:43.622Z,14.60
2023-03-17T17:24:12.267Z,14.50
2023-03-17T17:26:39.371Z,14.40
2023-03-17T17:29:06.433Z,14.40
2023-03-17T17:31:33.277Z,14.40
2023-03-17T17:34:00.125Z,14.30
2023-03-17T17:36:27.663Z,14.20
2023-03-17T17:38:55.532Z,14.10
2023-03-17T17:41:24.309Z,14.10
2023-03-17T17:43:51.656Z,14.10
2023-03-17T17:46:20.956Z,14.00
2023-03-17T17:48:48.342Z,14.00
2023-03-17T17:51:15.605Z,14.00
2023-03-17T17:53:42.360Z,13.90
2023-03-17T17:56:14.285Z,13.80
2023-03-17T17:58:41.397Z,13.80
2023-03-17T18:01:08.317Z,13.70
2023-03-17T18:03:35.130Z,13.80
2023-03-17T18:06:02.056Z,13.80
2023-03-17T18:08:29.073Z,13.70
2023-03-17T18:10:57.272Z,13.70
2023-03-17T18:13:24.653Z,13.70
2023-03-17T18:15:51.910Z,13.70
2023-03-17T18:18:18.795Z,13.70
2023-03-17T18:20:45.560Z,13.60
2023-03-17T18:23:12.380Z,13.60
2023-03-17T18:25:39.101Z,13.50
2023-03-17T18:28:06.306Z,13.50
2023-03-17T18:30:35.143Z,13.40
2023-03-17T18:33:14.800Z,13.40
2023-03-17T18:35:41.953Z,13.30
2023-03-17T18:38:08.838Z,13.30
2023-03-17T18:40:36.011Z,13.30
2023-03-17T18:43:03.027Z,13.20
2023-03-17T18:45:29.798Z,13.20
2023-03-17T18:47:56.448Z,13.10
2023-03-17T18:50:23.342Z,13.10
2023-03-17T18:52:50.596Z,13.10
2023-03-17T18:55:17.889Z,13.00
2023-03-17T18:57:45.681Z,12.90
2023-03-17T19:00:15.288Z,12.90
2023-03-17T19:02:42.387Z,12.90
2023-03-17T19:05:09.676Z,12.90
2023-03-17T19:07:37.961Z,12.80
2023-03-17T19:10:07.384Z,12.70
2023-03-17T19:12:34.094Z,12.70
2023-03-17T19:15:01.725Z,12.60
2023-03-17T19:17:28.888Z,12.60
2023-03-17T19:19:55.933Z,12.60
2023-03-17T19:22:23.289Z,12.50
2023-03-17T19:24:50.501Z,12.50
2023-03-17T19:27:17.605Z,12.50
2023-03-17T19:29:44.478Z,12.50
2023-03-17T19:32:11.404Z,12.50
2023-03-17T19:34:38.217Z,12.40
2023-03-17T19:37:05.048Z,12.40
2023-03-17T19:39:32.095Z,12.40
2023-03-17T19:41:59.184Z,12.40
2023-03-17T19:44:26.353Z,12.30
2023-03-17T19:46:53.100Z,12.30
2023-03-17T19:49:21.149Z,12.30
2023-03-17T19:51:49.113Z,12.20
2023-03-17T19:54:15.958Z,12.10
2023-03-17T19:56:42.851Z,12.00
2023-03-17T19:59:09.573Z,12.00
2023-03-17T20:01:37.907Z,11.90
2023-03-17T20:04:06.798Z,11.90
2023-03-17T20:06:34.681Z,11.90
2023-03-17T20:09:04.052Z,11.80
2023-03-17T20:11:33.890Z,11.70
2023-03-17T20:14:02.287Z,11.60
2023-03-17T20:16:32.680Z,11.60
2023-03-17T20:19:01.462Z,11.60
2023-03-17T20:21:28.352Z,11.60
2023-03-17T20:23:56.324Z,11.50
2023-03-17T20:26:23.358Z,11.50
2023-03-17T20:28:50.238Z,11.40
2023-03-17T20:31:17.983Z,11.30
2023-03-17T20:33:44.830Z,11.30
2023-03-17T20:36:12.944Z,11.30
2023-03-17T20:38:40.555Z,11.20
2023-03-17T20:41:10.668Z,11.20
2023-03-17T20:43:38.162Z,11.20
2023-03-17T20:46:05.983Z,11.20
2023-03-17T20:48:33.060Z,11.20
2023-03-17T20:51:00.604Z,11.20
2023-03-17T20:53:28.221Z,11.20
2023-03-17T20:55:55.524Z,11.20
2023-03-17T20:58:22.748Z,11.20
2023-03-17T21:00:50.395Z,11.20
2023-03-17T21:03:19.959Z,11.30
2023-03-17T21:05:47.614Z,11.30
2023-03-17T21:08:14.620Z,11.20
2023-03-17T21:10:41.609Z,11.20
2023-03-17T21:13:08.899Z,11.20
2023-03-17T21:15:36.066Z,11.20
2023-03-17T21:18:03.146Z,11.10
2023-03-17T21:20:30.334Z,11.00
2023-03-17T21:22:57.283Z,10.90
2023-03-17T21:25:24.027Z,10.90
2023-03-17T21:27:50.869Z,10.90
2023-03-17T21:30:17.719Z,10.90
2023-03-17T21:32:44.429Z,10.90
2023-03-17T21:35:11.406Z,10.90
2023-03-17T21:37:38.096Z,10.80
2023-03-17T21:40:07.442Z,10.80
2023-03-17T21:42:34.467Z,10.80
2023-03-17T21:45:01.451Z,10.70
2023-03-17T21:47:29.960Z,10.70
2023-03-17T21:49:58.027Z,10.60
2023-03-17T21:52:25.489Z,10.60
2023-03-17T21:54:52.302Z,10.50
2023-03-17T21:57:19.037Z,10.40
2023-03-17T21:59:46.527Z,10.40
2023-03-17T22:02:14.219Z,10.40
2023-03-17T22:04:41.797Z,10.30
2023-03-17T22:07:09.013Z,10.30
2023-03-17T22:09:36.086Z,10.20
2023-03-17T22:12:04.331Z,10.20
2023-03-17T22:14:31.239Z,10.10
2023-03-17T22:16:58.049Z,10.00
2023-03-17T22:19:25.037Z,10.00
2023-03-17T22:21:51.810Z,10.00
2023-03-17T22:24:18.879Z,10.00
2023-03-17T22:26:46.494Z,9.90
2023-03-17T22:29:13.638Z,9.90
2023-03-17T22:31:41.933Z,9.90
2023-03-17T22:34:10.041Z,9.90
2023-03-17T22:36:37.437Z,9.80
2023-03-17T22:39:06.892Z,9.80
2023-03-17T22:41:33.797Z,9.80
2023-03-17T22:44:00.484Z,9.80
2023-03-17T22:46:27.528Z,9.70
2023-03-17T22:48:54.386Z,9.70
2023-03-17T22:51:23.901Z,9.70
2023-03-17T22:53:51.790Z,9.70
2023-03-17T22:56:19.440Z,9.60
2023-03-17T22:58:46.920Z,9.50
2023-03-17T23:01:15.140Z,9.50
2023-03-17T23:03:43.246Z,9.40
2023-03-17T23:06:11.506Z,9.40
2023-03-17T23:08:39.270Z,9.30
2023-03-17T23:11:12.336Z,9.20
2023-03-17T23:13:41.526Z,9.20
2023-03-17T23:16:09.352Z,9.20
2023-03-17T23:18:36.224Z,9.20
2023-03-17T23:21:04.304Z,9.20
2023-03-17T23:23:31.913Z,9.20
2023-03-17T23:25:58.975Z,9.10
2023-03-17T23:28:25.791Z,9.10
2023-03-17T23:30:53.040Z,9.10
2023-03-17T23:33:21.592Z,9.00
2023-03-17T23:35:50.239Z,9.10
2023-03-17T23:38:19.519Z,9.00
2023-03-17T23:40:47.803Z,9.00
2023-03-17T23:43:14.998Z,9.00
2023-03-17T23:45:42.164Z,8.90
2023-03-17T23:48:10.037Z,8.90
2023-03-17T23:50:38.873Z,8.80
2023-03-17T23:53:05.629Z,8.80
2023-03-17T23:55:32.346Z,8.70
2023-03-17T23:58:01.409Z,8.70
